sensor_id;sensor_type;location;lat;lon;timestamp;P1;durP1;ratioP1;P2;durP2;ratioP2
30892;SDS011;17595;50.884;4.346;2023-01-09T00:01:40;1.45;;;0.95;;
30892;SDS011;17595;50.884;4.346;2023-01-09T00:04:09;2.70;;;1.13;;
30892;SDS011;17595;50.884;4.346;2023-01-09T00:06:35;2.92;;;1.05;;
30892;SDS011;17595;50.884;4.346;2023-01-09T00:09:01;2.90;;;1.23;;
30892;SDS011;17595;50.884;4.346;2023-01-09T00:11:27;3.60;;;1.45;;
30892;SDS011;17595;50.884;4.346;2023-01-09T00:13:53;3.88;;;1.25;;
30892;SDS011;17595;50.884;4.346;2023-01-09T00:16:19;2.03;;;1.05;;
30892;SDS011;17595;50.884;4.346;2023-01-09T00:18:44;2.65;;;1.20;;
30892;SDS011;17595;50.884;4.346;2023-01-09T00:21:10;2.67;;;1.10;;
30892;SDS011;17595;50.884;4.346;2023-01-09T00:23:37;1.13;;;0.85;;
30892;SDS011;17595;50.884;4.346;2023-01-09T00:26:06;1.30;;;1.20;;
30892;SDS011;17595;50.884;4.346;2023-01-09T00:28:35;2.92;;;1.15;;
30892;SDS011;17595;50.884;4.346;2023-01-09T00:31:01;2.65;;;0.93;;
30892;SDS011;17595;50.884;4.346;2023-01-09T00:33:33;4.80;;;1.10;;
30892;SDS011;17595;50.884;4.346;2023-01-09T00:36:12;5.10;;;1.17;;
30892;SDS011;17595;50.884;4.346;2023-01-09T00:38:37;5.13;;;1.40;;
30892;SDS011;17595;50.884;4.346;2023-01-09T00:41:04;3.17;;;1.05;;
30892;SDS011;17595;50.884;4.346;2023-01-09T00:43:33;2.97;;;1.10;;
30892;SDS011;17595;50.884;4.346;2023-01-09T00:46:02;3.15;;;1.40;;
30892;SDS011;17595;50.884;4.346;2023-01-09T00:48:30;2.50;;;1.00;;
30892;SDS011;17595;50.884;4.346;2023-01-09T00:50:57;6.10;;;1.23;;
30892;SDS011;17595;50.884;4.346;2023-01-09T00:53:25;3.40;;;1.10;;
30892;SDS011;17595;50.884;4.346;2023-01-09T00:55:54;2.25;;;1.38;;
30892;SDS011;17595;50.884;4.346;2023-01-09T00:58:23;3.05;;;1.33;;
30892;SDS011;17595;50.884;4.346;2023-01-09T01:00:49;1.13;;;0.90;;
30892;SDS011;17595;50.884;4.346;2023-01-09T01:03:15;5.25;;;1.08;;
30892;SDS011;17595;50.884;4.346;2023-01-09T01:05:40;3.08;;;1.15;;
30892;SDS011;17595;50.884;4.346;2023-01-09T01:08:25;3.72;;;1.30;;
30892;SDS011;17595;50.884;4.346;2023-01-09T01:10:50;3.42;;;1.20;;
30892;SDS011;17595;50.884;4.346;2023-01-09T01:13:16;5.93;;;1.85;;
30892;SDS011;17595;50.884;4.346;2023-01-09T01:15:42;3.80;;;1.20;;
30892;SDS011;17595;50.884;4.346;2023-01-09T01:18:09;4.38;;;1.20;;
30892;SDS011;17595;50.884;4.346;2023-01-09T01:20:38;4.28;;;1.30;;
30892;SDS011;17595;50.884;4.346;2023-01-09T01:23:05;4.20;;;1.20;;
30892;SDS011;17595;50.884;4.346;2023-01-09T01:25:30;3.53;;;1.10;;
30892;SDS011;17595;50.884;4.346;2023-01-09T01:27:56;3.35;;;1.17;;
30892;SDS011;17595;50.884;4.346;2023-01-09T01:30:21;7.13;;;1.15;;
30892;SDS011;17595;50.884;4.346;2023-01-09T01:32:47;4.57;;;1.15;;
30892;SDS011;17595;50.884;4.346;2023-01-09T01:35:12;3.00;;;1.02;;
30892;SDS011;17595;50.884;4.346;2023-01-09T01:37:38;3.72;;;1.05;;
30892;SDS011;17595;50.884;4.346;2023-01-09T01:40:05;6.57;;;1.20;;
30892;SDS011;17595;50.884;4.346;2023-01-09T01:42:32;6.33;;;1.20;;
30892;SDS011;17595;50.884;4.346;2023-01-09T01:50:32;3.42;;;1.08;;
30892;SDS011;17595;50.884;4.346;2023-01-09T01:55:47;8.48;;;1.45;;
30892;SDS011;17595;50.884;4.346;2023-01-09T01:58:24;3.30;;;0.80;;
30892;SDS011;17595;50.884;4.346;2023-01-09T02:00:50;1.88;;;0.70;;
30892;SDS011;17595;50.884;4.346;2023-01-09T02:03:18;4.32;;;1.17;;
30892;SDS011;17595;50.884;4.346;2023-01-09T02:05:47;4.38;;;0.90;;
30892;SDS011;17595;50.884;4.346;2023-01-09T02:08:13;6.90;;;1.00;;
30892;SDS011;17595;50.884;4.346;2023-01-09T02:10:39;5.55;;;1.00;;
30892;SDS011;17595;50.884;4.346;2023-01-09T02:13:06;4.45;;;1.00;;
30892;SDS011;17595;50.884;4.346;2023-01-09T02:15:36;3.10;;;0.90;;
30892;SDS011;17595;50.884;4.346;2023-01-09T02:20:46;6.50;;;1.10;;
30892;SDS011;17595;50.884;4.346;2023-01-09T02:32:24;7.97;;;1.60;;
30892;SDS011;17595;50.884;4.346;2023-01-09T02:42:38;4.50;;;1.20;;
30892;SDS011;17595;50.884;4.346;2023-01-09T02:45:06;7.90;;;1.25;;
30892;SDS011;17595;50.884;4.346;2023-01-09T02:47:37;7.50;;;0.93;;
30892;SDS011;17595;50.884;4.346;2023-01-09T02:50:06;7.15;;;1.10;;
30892;SDS011;17595;50.884;4.346;2023-01-09T03:03:50;6.10;;;1.95;;
30892;SDS011;17595;50.884;4.346;2023-01-09T03:06:24;7.82;;;1.27;;
30892;SDS011;17595;50.884;4.346;2023-01-09T03:09:02;3.00;;;0.90;;
30892;SDS011;17595;50.884;4.346;2023-01-09T03:11:34;3.90;;;1.02;;
30892;SDS011;17595;50.884;4.346;2023-01-09T03:14:06;7.38;;;1.00;;
30892;SDS011;17595;50.884;4.346;2023-01-09T03:16:40;4.00;;;1.13;;
30892;SDS011;17595;50.884;4.346;2023-01-09T03:19:10;6.95;;;1.30;;
30892;SDS011;17595;50.884;4.346;2023-01-09T03:21:40;3.47;;;1.15;;
30892;SDS011;17595;50.884;4.346;2023-01-09T03:24:07;5.78;;;1.17;;
30892;SDS011;17595;50.884;4.346;2023-01-09T03:26:33;4.88;;;1.20;;
30892;SDS011;17595;50.884;4.346;2023-01-09T03:28:59;7.10;;;1.30;;
30892;SDS011;17595;50.884;4.346;2023-01-09T03:31:25;6.13;;;1.42;;
30892;SDS011;17595;50.884;4.346;2023-01-09T03:33:51;5.55;;;1.35;;
30892;SDS011;17595;50.884;4.346;2023-01-09T03:36:18;5.03;;;1.13;;
30892;SDS011;17595;50.884;4.346;2023-01-09T03:38:45;8.30;;;1.30;;
30892;SDS011;17595;50.884;4.346;2023-01-09T03:41:11;4.88;;;1.10;;
30892;SDS011;17595;50.884;4.346;2023-01-09T03:43:36;3.83;;;1.20;;
30892;SDS011;17595;50.884;4.346;2023-01-09T03:46:02;4.95;;;1.20;;
30892;SDS011;17595;50.884;4.346;2023-01-09T03:48:29;5.75;;;1.13;;
30892;SDS011;17595;50.884;4.346;2023-01-09T03:50:55;6.53;;;1.15;;
30892;SDS011;17595;50.884;4.346;2023-01-09T03:53:21;6.18;;;1.23;;
30892;SDS011;17595;50.884;4.346;2023-01-09T03:55:51;6.82;;;1.50;;
30892;SDS011;17595;50.884;4.346;2023-01-09T03:58:18;6.90;;;1.48;;
30892;SDS011;17595;50.884;4.346;2023-01-09T04:00:45;10.32;;;1.10;;
30892;SDS011;17595;50.884;4.346;2023-01-09T04:03:12;4.82;;;0.88;;
30892;SDS011;17595;50.884;4.346;2023-01-09T04:05:39;4.60;;;1.08;;
30892;SDS011;17595;50.884;4.346;2023-01-09T04:08:05;6.65;;;1.45;;
30892;SDS011;17595;50.884;4.346;2023-01-09T04:10:31;4.45;;;1.20;;
30892;SDS011;17595;50.884;4.346;2023-01-09T04:12:57;9.07;;;1.30;;
30892;SDS011;17595;50.884;4.346;2023-01-09T04:15:23;9.18;;;2.08;;
30892;SDS011;17595;50.884;4.346;2023-01-09T04:17:48;5.93;;;1.38;;
30892;SDS011;17595;50.884;4.346;2023-01-09T04:20:14;13.00;;;1.95;;
30892;SDS011;17595;50.884;4.346;2023-01-09T04:22:40;7.78;;;2.33;;
30892;SDS011;17595;50.884;4.346;2023-01-09T04:25:05;6.43;;;1.50;;
30892;SDS011;17595;50.884;4.346;2023-01-09T04:27:31;6.25;;;1.38;;
30892;SDS011;17595;50.884;4.346;2023-01-09T04:29:57;6.90;;;1.45;;
30892;SDS011;17595;50.884;4.346;2023-01-09T04:32:23;11.02;;;1.65;;
30892;SDS011;17595;50.884;4.346;2023-01-09T04:34:48;9.38;;;1.13;;
30892;SDS011;17595;50.884;4.346;2023-01-09T04:37:14;7.47;;;1.42;;
30892;SDS011;17595;50.884;4.346;2023-01-09T04:39:40;10.93;;;2.13;;
30892;SDS011;17595;50.884;4.346;2023-01-09T04:42:10;9.93;;;1.50;;
30892;SDS011;17595;50.884;4.346;2023-01-09T04:44:36;9.35;;;1.73;;
30892;SDS011;17595;50.884;4.346;2023-01-09T04:47:01;10.93;;;1.92;;
30892;SDS011;17595;50.884;4.346;2023-01-09T04:49:27;11.27;;;1.52;;
30892;SDS011;17595;50.884;4.346;2023-01-09T04:51:53;9.75;;;1.80;;
30892;SDS011;17595;50.884;4.346;2023-01-09T04:54:19;12.27;;;2.00;;
30892;SDS011;17595;50.884;4.346;2023-01-09T04:56:45;9.60;;;1.92;;
30892;SDS011;17595;50.884;4.346;2023-01-09T04:59:11;9.30;;;1.70;;
30892;SDS011;17595;50.884;4.346;2023-01-09T05:01:37;8.80;;;2.03;;
30892;SDS011;17595;50.884;4.346;2023-01-09T05:04:02;8.02;;;1.58;;
30892;SDS011;17595;50.884;4.346;2023-01-09T05:06:29;7.65;;;1.67;;
30892;SDS011;17595;50.884;4.346;2023-01-09T05:08:55;10.77;;;1.60;;
30892;SDS011;17595;50.884;4.346;2023-01-09T05:11:21;7.70;;;1.88;;
30892;SDS011;17595;50.884;4.346;2023-01-09T05:13:47;6.32;;;1.55;;
30892;SDS011;17595;50.884;4.346;2023-01-09T05:16:13;10.18;;;1.55;;
30892;SDS011;17595;50.884;4.346;2023-01-09T05:18:38;5.25;;;1.10;;
30892;SDS011;17595;50.884;4.346;2023-01-09T05:21:04;7.70;;;1.40;;
30892;SDS011;17595;50.884;4.346;2023-01-09T05:23:29;8.80;;;1.63;;
30892;SDS011;17595;50.884;4.346;2023-01-09T05:25:55;6.97;;;1.13;;
30892;SDS011;17595;50.884;4.346;2023-01-09T05:28:21;9.82;;;1.80;;
30892;SDS011;17595;50.884;4.346;2023-01-09T05:30:46;9.85;;;1.55;;
30892;SDS011;17595;50.884;4.346;2023-01-09T05:33:12;7.90;;;1.58;;
30892;SDS011;17595;50.884;4.346;2023-01-09T05:35:38;7.45;;;1.52;;
30892;SDS011;17595;50.884;4.346;2023-01-09T05:38:03;8.00;;;1.40;;
30892;SDS011;17595;50.884;4.346;2023-01-09T05:40:29;7.70;;;1.70;;
30892;SDS011;17595;50.884;4.346;2023-01-09T05:42:55;10.63;;;1.70;;
30892;SDS011;17595;50.884;4.346;2023-01-09T05:45:20;9.18;;;1.83;;
30892;SDS011;17595;50.884;4.346;2023-01-09T05:47:46;4.25;;;1.30;;
30892;SDS011;17595;50.884;4.346;2023-01-09T05:50:12;11.43;;;1.63;;
30892;SDS011;17595;50.884;4.346;2023-01-09T05:52:38;6.60;;;1.48;;
30892;SDS011;17595;50.884;4.346;2023-01-09T05:55:04;8.77;;;1.40;;
30892;SDS011;17595;50.884;4.346;2023-01-09T05:57:31;6.40;;;1.27;;
30892;SDS011;17595;50.884;4.346;2023-01-09T05:59:56;6.28;;;1.20;;
30892;SDS011;17595;50.884;4.346;2023-01-09T06:02:22;8.95;;;1.50;;
30892;SDS011;17595;50.884;4.346;2023-01-09T06:04:47;8.45;;;1.55;;
30892;SDS011;17595;50.884;4.346;2023-01-09T06:07:13;5.75;;;0.98;;
30892;SDS011;17595;50.884;4.346;2023-01-09T06:09:39;6.57;;;1.40;;
30892;SDS011;17595;50.884;4.346;2023-01-09T06:12:04;5.57;;;1.45;;
30892;SDS011;17595;50.884;4.346;2023-01-09T06:14:30;11.07;;;1.88;;
30892;SDS011;17595;50.884;4.346;2023-01-09T06:16:56;8.95;;;1.30;;
30892;SDS011;17595;50.884;4.346;2023-01-09T06:19:21;6.85;;;1.30;;
30892;SDS011;17595;50.884;4.346;2023-01-09T06:21:47;7.63;;;1.75;;
30892;SDS011;17595;50.884;4.346;2023-01-09T06:24:12;9.25;;;1.40;;
30892;SDS011;17595;50.884;4.346;2023-01-09T06:26:38;6.07;;;1.60;;
30892;SDS011;17595;50.884;4.346;2023-01-09T06:29:03;6.75;;;1.27;;
30892;SDS011;17595;50.884;4.346;2023-01-09T06:31:29;5.68;;;1.45;;
30892;SDS011;17595;50.884;4.346;2023-01-09T06:33:55;5.85;;;1.35;;
30892;SDS011;17595;50.884;4.346;2023-01-09T06:36:20;6.90;;;1.35;;
30892;SDS011;17595;50.884;4.346;2023-01-09T06:38:46;8.10;;;1.10;;
30892;SDS011;17595;50.884;4.346;2023-01-09T06:41:12;5.57;;;1.10;;
30892;SDS011;17595;50.884;4.346;2023-01-09T06:43:37;4.07;;;0.85;;
30892;SDS011;17595;50.884;4.346;2023-01-09T06:46:03;6.60;;;1.10;;
30892;SDS011;17595;50.884;4.346;2023-01-09T06:48:32;6.22;;;1.00;;
30892;SDS011;17595;50.884;4.346;2023-01-09T06:50:58;7.03;;;1.08;;
30892;SDS011;17595;50.884;4.346;2023-01-09T06:53:24;5.35;;;1.25;;
30892;SDS011;17595;50.884;4.346;2023-01-09T06:55:50;6.32;;;1.17;;
30892;SDS011;17595;50.884;4.346;2023-01-09T06:58:15;6.57;;;1.13;;
30892;SDS011;17595;50.884;4.346;2023-01-09T07:00:41;3.15;;;0.90;;
30892;SDS011;17595;50.884;4.346;2023-01-09T07:03:07;6.13;;;1.10;;
30892;SDS011;17595;50.884;4.346;2023-01-09T07:05:38;4.82;;;0.90;;
30892;SDS011;17595;50.884;4.346;2023-01-09T07:08:06;1.95;;;0.70;;
30892;SDS011;17595;50.884;4.346;2023-01-09T07:10:32;5.45;;;1.00;;
30892;SDS011;17595;50.884;4.346;2023-01-09T07:12:58;6.80;;;0.95;;
30892;SDS011;17595;50.884;4.346;2023-01-09T07:15:23;4.53;;;0.88;;
30892;SDS011;17595;50.884;4.346;2023-01-09T07:17:52;2.97;;;0.82;;
30892;SDS011;17595;50.884;4.346;2023-01-09T07:20:18;7.45;;;1.10;;
30892;SDS011;17595;50.884;4.346;2023-01-09T07:22:44;5.40;;;0.90;;
30892;SDS011;17595;50.884;4.346;2023-01-09T07:25:10;3.40;;;0.98;;
30892;SDS011;17595;50.884;4.346;2023-01-09T07:27:36;2.55;;;0.90;;
30892;SDS011;17595;50.884;4.346;2023-01-09T07:30:02;4.60;;;0.65;;
30892;SDS011;17595;50.884;4.346;2023-01-09T07:32:29;3.20;;;0.85;;
30892;SDS011;17595;50.884;4.346;2023-01-09T07:34:55;5.65;;;0.80;;
30892;SDS011;17595;50.884;4.346;2023-01-09T07:37:20;2.65;;;0.90;;
30892;SDS011;17595;50.884;4.346;2023-01-09T07:39:46;2.90;;;0.80;;
30892;SDS011;17595;50.884;4.346;2023-01-09T07:42:12;5.65;;;0.80;;
30892;SDS011;17595;50.884;4.346;2023-01-09T07:44:37;4.68;;;1.10;;
30892;SDS011;17595;50.884;4.346;2023-01-09T07:47:03;3.90;;;0.80;;
30892;SDS011;17595;50.884;4.346;2023-01-09T07:49:29;5.22;;;1.05;;
30892;SDS011;17595;50.884;4.346;2023-01-09T07:51:54;6.85;;;1.27;;
30892;SDS011;17595;50.884;4.346;2023-01-09T07:54:20;2.75;;;1.08;;
30892;SDS011;17595;50.884;4.346;2023-01-09T07:56:46;5.22;;;1.10;;
30892;SDS011;17595;50.884;4.346;2023-01-09T07:59:12;8.15;;;1.27;;
30892;SDS011;17595;50.884;4.346;2023-01-09T08:01:37;6.90;;;1.20;;
30892;SDS011;17595;50.884;4.346;2023-01-09T08:04:03;9.55;;;1.35;;
30892;SDS011;17595;50.884;4.346;2023-01-09T08:06:29;3.92;;;1.27;;
30892;SDS011;17595;50.884;4.346;2023-01-09T08:08:57;5.90;;;1.20;;
30892;SDS011;17595;50.884;4.346;2023-01-09T08:11:23;6.00;;;1.00;;
30892;SDS011;17595;50.884;4.346;2023-01-09T08:13:49;11.82;;;1.50;;
30892;SDS011;17595;50.884;4.346;2023-01-09T08:16:14;4.90;;;1.20;;
30892;SDS011;17595;50.884;4.346;2023-01-09T08:18:40;2.05;;;0.80;;
30892;SDS011;17595;50.884;4.346;2023-01-09T08:21:06;8.00;;;1.42;;
30892;SDS011;17595;50.884;4.346;2023-01-09T08:23:32;5.05;;;0.90;;
30892;SDS011;17595;50.884;4.346;2023-01-09T08:25:58;5.22;;;1.25;;
30892;SDS011;17595;50.884;4.346;2023-01-09T08:28:23;5.15;;;1.00;;
30892;SDS011;17595;50.884;4.346;2023-01-09T08:30:49;4.57;;;1.08;;
30892;SDS011;17595;50.884;4.346;2023-01-09T08:33:14;5.57;;;1.02;;
30892;SDS011;17595;50.884;4.346;2023-01-09T08:35:41;2.83;;;0.80;;
30892;SDS011;17595;50.884;4.346;2023-01-09T08:38:08;4.78;;;1.13;;
30892;SDS011;17595;50.884;4.346;2023-01-09T08:40:34;4.60;;;1.15;;
30892;SDS011;17595;50.884;4.346;2023-01-09T08:43:00;9.82;;;1.10;;
30892;SDS011;17595;50.884;4.346;2023-01-09T08:45:44;5.88;;;1.35;;
30892;SDS011;17595;50.884;4.346;2023-01-09T08:48:28;4.57;;;1.00;;
30892;SDS011;17595;50.884;4.346;2023-01-09T08:50:53;3.10;;;1.17;;
30892;SDS011;17595;50.884;4.346;2023-01-09T08:53:19;3.88;;;0.80;;
30892;SDS011;17595;50.884;4.346;2023-01-09T08:55:44;2.70;;;0.52;;
30892;SDS011;17595;50.884;4.346;2023-01-09T08:58:10;2.42;;;0.70;;
30892;SDS011;17595;50.884;4.346;2023-01-09T09:00:36;3.72;;;0.75;;
30892;SDS011;17595;50.884;4.346;2023-01-09T09:03:02;2.80;;;0.70;;
30892;SDS011;17595;50.884;4.346;2023-01-09T09:05:28;3.60;;;0.70;;
30892;SDS011;17595;50.884;4.346;2023-01-09T09:07:55;1.20;;;0.52;;
30892;SDS011;17595;50.884;4.346;2023-01-09T09:10:22;2.47;;;0.73;;
30892;SDS011;17595;50.884;4.346;2023-01-09T09:12:50;2.00;;;0.50;;
30892;SDS011;17595;50.884;4.346;2023-01-09T09:15:16;2.75;;;0.40;;
30892;SDS011;17595;50.884;4.346;2023-01-09T09:20:27;4.95;;;0.77;;
30892;SDS011;17595;50.884;4.346;2023-01-09T09:22:55;2.97;;;0.68;;
30892;SDS011;17595;50.884;4.346;2023-01-09T09:25:20;1.13;;;0.60;;
30892;SDS011;17595;50.884;4.346;2023-01-09T09:27:47;2.70;;;0.70;;
30892;SDS011;17595;50.884;4.346;2023-01-09T09:30:14;1.77;;;0.85;;
30892;SDS011;17595;50.884;4.346;2023-01-09T09:32:41;2.90;;;0.60;;
30892;SDS011;17595;50.884;4.346;2023-01-09T09:35:07;4.03;;;0.80;;
30892;SDS011;17595;50.884;4.346;2023-01-09T09:37:33;1.80;;;0.60;;
30892;SDS011;17595;50.884;4.346;2023-01-09T09:39:59;3.05;;;0.70;;
30892;SDS011;17595;50.884;4.346;2023-01-09T09:48:53;3.20;;;0.95;;
30892;SDS011;17595;50.884;4.346;2023-01-09T09:54:23;1.85;;;0.57;;
30892;SDS011;17595;50.884;4.346;2023-01-09T09:56:55;1.25;;;0.60;;
30892;SDS011;17595;50.884;4.346;2023-01-09T09:59:24;1.42;;;0.68;;
30892;SDS011;17595;50.884;4.346;2023-01-09T10:01:56;2.35;;;0.73;;
30892;SDS011;17595;50.884;4.346;2023-01-09T10:04:24;2.35;;;0.77;;
30892;SDS011;17595;50.884;4.346;2023-01-09T10:06:56;4.10;;;0.73;;
30892;SDS011;17595;50.884;4.346;2023-01-09T10:11:59;1.63;;;0.50;;
30892;SDS011;17595;50.884;4.346;2023-01-09T10:14:35;1.88;;;0.55;;
30892;SDS011;17595;50.884;4.346;2023-01-09T10:17:04;1.00;;;0.60;;
30892;SDS011;17595;50.884;4.346;2023-01-09T10:38:35;2.28;;;0.60;;
30892;SDS011;17595;50.884;4.346;2023-01-09T10:44:15;0.90;;;0.50;;
30892;SDS011;17595;50.884;4.346;2023-01-09T10:47:20;1.75;;;0.90;;
30892;SDS011;17595;50.884;4.346;2023-01-09T10:49:49;1.92;;;0.80;;
30892;SDS011;17595;50.884;4.346;2023-01-09T10:52:17;2.70;;;0.70;;
30892;SDS011;17595;50.884;4.346;2023-01-09T10:54:54;3.60;;;0.95;;
30892;SDS011;17595;50.884;4.346;2023-01-09T11:00:12;2.67;;;0.77;;
30892;SDS011;17595;50.884;4.346;2023-01-09T11:02:46;1.77;;;0.60;;
30892;SDS011;17595;50.884;4.346;2023-01-09T11:05:19;6.43;;;0.70;;
30892;SDS011;17595;50.884;4.346;2023-01-09T11:10:46;7.07;;;1.42;;
30892;SDS011;17595;50.884;4.346;2023-01-09T11:13:20;1.50;;;0.75;;
30892;SDS011;17595;50.884;4.346;2023-01-09T11:18:39;5.65;;;3.22;;
30892;SDS011;17595;50.884;4.346;2023-01-09T11:26:45;4.53;;;1.30;;
30892;SDS011;17595;50.884;4.346;2023-01-09T11:29:16;4.03;;;1.08;;
30892;SDS011;17595;50.884;4.346;2023-01-09T11:31:50;1.92;;;1.10;;
30892;SDS011;17595;50.884;4.346;2023-01-09T11:34:20;3.60;;;1.65;;
30892;SDS011;17595;50.884;4.346;2023-01-09T11:36:48;8.70;;;1.50;;
30892;SDS011;17595;50.884;4.346;2023-01-09T11:39:18;3.38;;;1.50;;
30892;SDS011;17595;50.884;4.346;2023-01-09T11:41:58;4.38;;;1.50;;
30892;SDS011;17595;50.884;4.346;2023-01-09T11:44:26;3.38;;;1.10;;
30892;SDS011;17595;50.884;4.346;2023-01-09T11:46:53;3.38;;;1.10;;
30892;SDS011;17595;50.884;4.346;2023-01-09T11:49:20;2.58;;;1.35;;
30892;SDS011;17595;50.884;4.346;2023-01-09T11:54:39;8.25;;;1.50;;
30892;SDS011;17595;50.884;4.346;2023-01-09T11:57:10;4.82;;;2.00;;
30892;SDS011;17595;50.884;4.346;2023-01-09T11:59:36;4.97;;;1.77;;
30892;SDS011;17595;50.884;4.346;2023-01-09T12:02:24;2.15;;;1.20;;
30892;SDS011;17595;50.884;4.346;2023-01-09T12:07:55;4.38;;;1.33;;
30892;SDS011;17595;50.884;4.346;2023-01-09T12:10:35;2.80;;;1.23;;
30892;SDS011;17595;50.884;4.346;2023-01-09T12:18:25;9.20;;;1.87;;
30892;SDS011;17595;50.884;4.346;2023-01-09T12:26:30;7.88;;;3.95;;
30892;SDS011;17595;50.884;4.346;2023-01-09T12:32:37;7.15;;;2.13;;
30892;SDS011;17595;50.884;4.346;2023-01-09T12:35:04;8.00;;;2.35;;
30892;SDS011;17595;50.884;4.346;2023-01-09T12:54:04;10.35;;;2.33;;
30892;SDS011;17595;50.884;4.346;2023-01-09T12:59:09;7.07;;;2.13;;
30892;SDS011;17595;50.884;4.346;2023-01-09T13:04:34;7.22;;;2.10;;
30892;SDS011;17595;50.884;4.346;2023-01-09T13:07:09;6.35;;;2.22;;
30892;SDS011;17595;50.884;4.346;2023-01-09T13:12:16;9.20;;;2.30;;
30892;SDS011;17595;50.884;4.346;2023-01-09T13:17:42;7.18;;;2.40;;
30892;SDS011;17595;50.884;4.346;2023-01-09T13:23:39;6.78;;;2.20;;
30892;SDS011;17595;50.884;4.346;2023-01-09T13:26:03;7.78;;;2.08;;
30892;SDS011;17595;50.884;4.346;2023-01-09T13:28:34;8.27;;;1.90;;
30892;SDS011;17595;50.884;4.346;2023-01-09T13:33:41;7.18;;;2.15;;
30892;SDS011;17595;50.884;4.346;2023-01-09T13:36:53;9.15;;;2.15;;
30892;SDS011;17595;50.884;4.346;2023-01-09T13:39:33;9.43;;;1.85;;
30892;SDS011;17595;50.884;4.346;2023-01-09T13:42:05;18.38;;;2.08;;
30892;SDS011;17595;50.884;4.346;2023-01-09T13:45:21;14.63;;;2.60;;
30892;SDS011;17595;50.884;4.346;2023-01-09T13:50:50;9.52;;;2.30;;
30892;SDS011;17595;50.884;4.346;2023-01-09T13:58:30;11.30;;;2.78;;
30892;SDS011;17595;50.884;4.346;2023-01-09T14:01:03;10.60;;;2.70;;
30892;SDS011;17595;50.884;4.346;2023-01-09T14:06:33;6.93;;;2.25;;
30892;SDS011;17595;50.884;4.346;2023-01-09T14:11:42;9.73;;;2.25;;
30892;SDS011;17595;50.884;4.346;2023-01-09T14:14:15;9.10;;;2.97;;
30892;SDS011;17595;50.884;4.346;2023-01-09T14:16:52;8.23;;;2.50;;
30892;SDS011;17595;50.884;4.346;2023-01-09T14:19:29;8.82;;;1.80;;
30892;SDS011;17595;50.884;4.346;2023-01-09T14:21:58;6.13;;;2.13;;
30892;SDS011;17595;50.884;4.346;2023-01-09T14:24:40;9.77;;;2.00;;
30892;SDS011;17595;50.884;4.346;2023-01-09T14:30:26;9.57;;;2.45;;
30892;SDS011;17595;50.884;4.346;2023-01-09T14:35:40;9.02;;;2.35;;
30892;SDS011;17595;50.884;4.346;2023-01-09T14:40:37;10.05;;;2.40;;
30892;SDS011;17595;50.884;4.346;2023-01-09T14:43:12;11.32;;;2.45;;
30892;SDS011;17595;50.884;4.346;2023-01-09T14:45:45;11.05;;;2.28;;
30892;SDS011;17595;50.884;4.346;2023-01-09T14:48:13;9.30;;;2.10;;
30892;SDS011;17595;50.884;4.346;2023-01-09T14:50:46;15.15;;;2.13;;
30892;SDS011;17595;50.884;4.346;2023-01-09T14:53:25;10.65;;;2.05;;
30892;SDS011;17595;50.884;4.346;2023-01-09T14:56:00;11.43;;;2.38;;
30892;SDS011;17595;50.884;4.346;2023-01-09T15:03:37;7.60;;;2.38;;
30892;SDS011;17595;50.884;4.346;2023-01-09T15:06:09;7.93;;;2.38;;
30892;SDS011;17595;50.884;4.346;2023-01-09T15:08:43;8.43;;;2.13;;
30892;SDS011;17595;50.884;4.346;2023-01-09T15:11:10;9.80;;;2.30;;
30892;SDS011;17595;50.884;4.346;2023-01-09T15:13:40;10.25;;;2.22;;
30892;SDS011;17595;50.884;4.346;2023-01-09T15:16:16;7.05;;;2.33;;
30892;SDS011;17595;50.884;4.346;2023-01-09T15:18:47;9.20;;;2.20;;
30892;SDS011;17595;50.884;4.346;2023-01-09T15:21:17;6.95;;;2.10;;
30892;SDS011;17595;50.884;4.346;2023-01-09T15:23:48;11.00;;;2.35;;
30892;SDS011;17595;50.884;4.346;2023-01-09T15:26:29;7.18;;;2.17;;
30892;SDS011;17595;50.884;4.346;2023-01-09T15:29:28;9.63;;;1.67;;
30892;SDS011;17595;50.884;4.346;2023-01-09T15:31:48;7.38;;;2.17;;
30892;SDS011;17595;50.884;4.346;2023-01-09T15:34:19;4.30;;;1.83;;
30892;SDS011;17595;50.884;4.346;2023-01-09T15:36:46;6.40;;;2.23;;
30892;SDS011;17595;50.884;4.346;2023-01-09T15:39:18;4.85;;;1.88;;
30892;SDS011;17595;50.884;4.346;2023-01-09T15:41:55;6.63;;;1.75;;
30892;SDS011;17595;50.884;4.346;2023-01-09T15:44:41;9.15;;;2.05;;
30892;SDS011;17595;50.884;4.346;2023-01-09T15:47:14;9.80;;;2.47;;
30892;SDS011;17595;50.884;4.346;2023-01-09T15:49:44;7.32;;;1.98;;
30892;SDS011;17595;50.884;4.346;2023-01-09T15:52:13;5.82;;;2.30;;
30892;SDS011;17595;50.884;4.346;2023-01-09T15:54:41;8.88;;;2.70;;
30892;SDS011;17595;50.884;4.346;2023-01-09T15:57:21;7.75;;;2.40;;
30892;SDS011;17595;50.884;4.346;2023-01-09T15:59:51;11.07;;;2.60;;
30892;SDS011;17595;50.884;4.346;2023-01-09T16:02:17;5.72;;;2.60;;
30892;SDS011;17595;50.884;4.346;2023-01-09T16:05:07;8.30;;;2.33;;
30892;SDS011;17595;50.884;4.346;2023-01-09T16:07:48;6.15;;;2.00;;
30892;SDS011;17595;50.884;4.346;2023-01-09T16:10:25;8.68;;;2.42;;
30892;SDS011;17595;50.884;4.346;2023-01-09T16:12:57;4.60;;;2.17;;
30892;SDS011;17595;50.884;4.346;2023-01-09T16:15:23;6.00;;;2.63;;
30892;SDS011;17595;50.884;4.346;2023-01-09T16:18:05;12.23;;;4.70;;
30892;SDS011;17595;50.884;4.346;2023-01-09T16:20:59;6.60;;;2.20;;
30892;SDS011;17595;50.884;4.346;2023-01-09T16:23:54;9.05;;;2.70;;
30892;SDS011;17595;50.884;4.346;2023-01-09T16:26:25;7.65;;;2.05;;
30892;SDS011;17595;50.884;4.346;2023-01-09T16:28:53;7.13;;;2.15;;
30892;SDS011;17595;50.884;4.346;2023-01-09T16:31:28;6.93;;;2.28;;
30892;SDS011;17595;50.884;4.346;2023-01-09T16:34:12;10.65;;;2.55;;
30892;SDS011;17595;50.884;4.346;2023-01-09T16:36:38;7.68;;;2.42;;
30892;SDS011;17595;50.884;4.346;2023-01-09T16:39:03;11.05;;;3.78;;
30892;SDS011;17595;50.884;4.346;2023-01-09T16:41:29;4.88;;;2.42;;
30892;SDS011;17595;50.884;4.346;2023-01-09T16:44:13;9.57;;;2.53;;
30892;SDS011;17595;50.884;4.346;2023-01-09T16:46:39;9.73;;;3.90;;
30892;SDS011;17595;50.884;4.346;2023-01-09T16:51:45;11.15;;;3.47;;
30892;SDS011;17595;50.884;4.346;2023-01-09T16:54:12;16.25;;;3.85;;
30892;SDS011;17595;50.884;4.346;2023-01-09T16:56:38;7.45;;;3.72;;
30892;SDS011;17595;50.884;4.346;2023-01-09T16:59:10;9.65;;;3.63;;
30892;SDS011;17595;50.884;4.346;2023-01-09T17:01:38;7.85;;;3.53;;
30892;SDS011;17595;50.884;4.346;2023-01-09T17:04:10;7.50;;;2.92;;
30892;SDS011;17595;50.884;4.346;2023-01-09T17:06:37;10.65;;;3.83;;
30892;SDS011;17595;50.884;4.346;2023-01-09T17:09:04;10.60;;;3.60;;
30892;SDS011;17595;50.884;4.346;2023-01-09T17:11:30;10.10;;;3.55;;
30892;SDS011;17595;50.884;4.346;2023-01-09T17:13:56;9.27;;;3.10;;
30892;SDS011;17595;50.884;4.346;2023-01-09T17:16:22;14.07;;;3.10;;
30892;SDS011;17595;50.884;4.346;2023-01-09T17:18:48;8.80;;;3.33;;
30892;SDS011;17595;50.884;4.346;2023-01-09T17:21:16;10.85;;;3.22;;
30892;SDS011;17595;50.884;4.346;2023-01-09T17:23:43;17.17;;;3.42;;
30892;SDS011;17595;50.884;4.346;2023-01-09T17:26:13;7.75;;;3.22;;
30892;SDS011;17595;50.884;4.346;2023-01-09T17:29:00;6.97;;;2.83;;
30892;SDS011;17595;50.884;4.346;2023-01-09T17:31:26;11.65;;;3.33;;
30892;SDS011;17595;50.884;4.346;2023-01-09T17:33:51;12.63;;;3.50;;
30892;SDS011;17595;50.884;4.346;2023-01-09T17:36:25;9.30;;;3.42;;
30892;SDS011;17595;50.884;4.346;2023-01-09T17:38:53;6.38;;;3.22;;
30892;SDS011;17595;50.884;4.346;2023-01-09T17:41:22;11.00;;;3.92;;
30892;SDS011;17595;50.884;4.346;2023-01-09T17:43:49;8.07;;;4.05;;
30892;SDS011;17595;50.884;4.346;2023-01-09T17:46:16;11.90;;;3.70;;
30892;SDS011;17595;50.884;4.346;2023-01-09T17:48:47;6.18;;;3.03;;
30892;SDS011;17595;50.884;4.346;2023-01-09T17:51:13;8.00;;;3.63;;